Bookmark and Share
Track history (hours):
 

Ikarus

Last reported at 2014-Apr-19 06:32 UTC. Time now 2014-Apr-19 07:08 UTC.
Position N 43°35' E 010°18'.

Length 200 m; draft 6.7 m.

Type: Passenger vessel. MMSI: 239513000.

NotesDate/timePositionNaut miles runAvg speedWind from/ knotsBaromVisibWave heightAir tempDewpointWater temp
2014-Apr-19 06:32N 43°35' E 010°18'0 0.0
2014-Apr-19 05:32N 43°35' E 010°18'0 0.0
2014-Apr-19 04:32N 43°35' E 010°18'0 0.0
2014-Apr-19 03:32N 43°35' E 010°18'0 0.0
2014-Apr-19 02:32N 43°35' E 010°18'0 0.0
2014-Apr-19 01:32N 43°35' E 010°18'0 0.0
2014-Apr-19 00:32N 43°35' E 010°18'0 0.0
2014-Apr-18 23:32N 43°35' E 010°18'0 0.0
2014-Apr-18 22:32N 43°35' E 010°18'0 0.0
2014-Apr-18 21:32N 43°35' E 010°18'0 0.0
2014-Apr-18 20:32N 43°35' E 010°18'0 0.0
2014-Apr-18 19:32N 43°35' E 010°18'0 0.0
2014-Apr-18 18:32N 43°35' E 010°18'0 0.0
2014-Apr-18 17:32N 43°35' E 010°18'0 0.0
2014-Apr-18 16:32N 43°35' E 010°18'0 0.0
2014-Apr-18 15:32N 43°35' E 010°18'0 0.0
2014-Apr-18 14:29N 43°35' E 010°18'0 0.0
2014-Apr-18 13:32N 43°35' E 010°18'0 0.0
2014-Apr-18 12:32N 43°35' E 010°18'0 0.0
2014-Apr-18 11:32N 43°35' E 010°18'0 0.0
2014-Apr-18 10:32N 43°35' E 010°18'0 0.0
2014-Apr-18 09:32N 43°35' E 010°18'0 0.0
2014-Apr-18 08:32N 43°35' E 010°18'0 0.0
2014-Apr-18 07:32N 43°35' E 010°18'0 0.0
2014-Apr-18 05:29N 43°35' E 010°18'0 0.0
2014-Apr-18 04:34N 43°35' E 010°18'0 0.0
2014-Apr-18 03:33N 43°35' E 010°18'0 0.0
2014-Apr-18 02:33N 43°35' E 010°18'0 0.0
2014-Apr-18 01:34N 43°35' E 010°18'0 0.0
2014-Apr-18 00:33N 43°35' E 010°18'0 0.0
2014-Apr-17 23:34N 43°35' E 010°18'0 0.0
2014-Apr-17 22:34N 43°35' E 010°18'0 0.0
2014-Apr-17 21:33N 43°35' E 010°18'0 0.0
2014-Apr-17 20:34N 43°35' E 010°18'4 4.0
2014-Apr-17 19:33N 43°31' E 010°15'1817.9
2014-Apr-17 18:33N 43°31' E 009°51'1919.0
2014-Apr-17 17:34N 43°24' E 009°26'1919.1
2014-Apr-17 16:33N 43°17' E 009°02'1919.1
2014-Apr-17 15:33N 43°10' E 008°38'6219.7
2014-Apr-17 12:24N 42°47' E 007°18'2119.4
2014-Apr-17 11:18N 42°39' E 006°51'1617.8
2014-Apr-17 10:23N 42°33' E 006°31'1618.8
2014-Apr-17 09:34N 42°28' E 006°11'2018.6
2014-Apr-17 08:30N 42°20' E 005°46'1818.8
2014-Apr-17 07:33N 42°13' E 005°24'1919.2
2014-Apr-17 06:33N 42°06' E 005°00'2019.9
2014-Apr-17 05:32N 41°59' E 004°34'1717.6
2014-Apr-17 04:33N 41°53' E 004°13'5618.6
2014-Apr-17 01:33N 41°32' E 003°03'1817.6
2014-Apr-17 00:32N 41°26' E 002°41'1717.2
2014-Apr-16 23:31N 41°19' E 002°19'7 7.3
2014-Apr-16 22:33N 41°22' E 002°11'0 0.0
2014-Apr-16 21:32N 41°22' E 002°11'0 0.0
2014-Apr-16 20:30N 41°22' E 002°11'0 0.0
2014-Apr-16 19:33N 41°22' E 002°11'5 5.0
2014-Apr-16 18:32N 41°17' E 002°11'2422.6
2014-Apr-16 17:29N 40°56' E 001°57'2021.5
2014-Apr-16 16:33N 40°38' E 001°45'2120.7
2014-Apr-16 15:33N 40°20' E 001°32'2221.7
2014-Apr-16 14:33N 40°00' E 001°19'2221.7
2014-Apr-16 13:33N 39°41' E 001°07'2321.7
2014-Apr-16 12:31N 39°21' E 000°53'9423.4
2014-Apr-16 08:29N 37°60' W 000°07'2021.5
2014-Apr-16 07:33N 37°43' W 000°22'25020.4
2014-Apr-15 19:19N 36°01' W 005°07'1418.7
2014-Apr-15 18:34N 35°58' W 005°24'4 0.3
2014-Apr-15 07:34N 36°00' W 005°21'24915.6
2014-Apr-14 15:33N 37°35' W 000°33'1615.9
2014-Apr-14 14:33N 37°48' W 000°22'10014.3
2014-Apr-14 07:32N 39°14' E 000°45'3115.0
2014-Apr-14 05:29N 39°41' E 001°03'11316.3
2014-Apr-13 22:33N 41°22' E 002°11'0 0.0
2014-Apr-13 21:33N 41°22' E 002°11'0 0.0
2014-Apr-13 20:33N 41°22' E 002°11'0 0.0
2014-Apr-13 19:27N 41°22' E 002°11'5 3.9
2014-Apr-13 18:14N 41°17' E 002°11'1318.9
2014-Apr-13 17:33N 41°23' E 002°27'1919.0
2014-Apr-13 16:33N 41°31' E 002°50'1918.8
2014-Apr-13 15:33N 41°39' E 003°12'1919.0
2014-Apr-13 14:33N 41°47' E 003°35'2818.7
2014-Apr-13 13:04N 41°59' E 004°09'1019.8
2014-Apr-13 12:33N 42°03' E 004°21'1818.6
2014-Apr-13 11:33N 42°11' E 004°44'1918.5
2014-Apr-13 10:33N 42°19' E 005°07'1918.8
2014-Apr-13 09:32N 42°27' E 005°30'17319.3
2014-Apr-13 00:33N 43°23' E 009°14'1919.0
2014-Apr-12 23:33N 43°28' E 009°39'1919.1
2014-Apr-12 22:34N 43°30' E 010°05'1010.3
2014-Apr-12 21:33N 43°35' E 010°18'0 0.0
2014-Apr-12 20:33N 43°35' E 010°18'0 0.0
2014-Apr-12 19:33N 43°35' E 010°18'0 0.0
2014-Apr-12 18:33N 43°35' E 010°18'0 0.0
2014-Apr-12 17:34N 43°35' E 010°18'0 0.0
2014-Apr-12 16:33N 43°35' E 010°18'0 0.0
2014-Apr-12 15:32N 43°35' E 010°18'0 0.0
2014-Apr-12 14:32N 43°35' E 010°18'0 0.0
2014-Apr-12 13:32N 43°35' E 010°18'0 0.0
2014-Apr-12 12:32N 43°35' E 010°18'0 0.0
2014-Apr-12 11:32N 43°35' E 010°18'0 0.0
2014-Apr-12 10:29N 43°35' E 010°18'0 0.0
2014-Apr-12 09:32N 43°35' E 010°18'0 0.0
2014-Apr-12 08:29N 43°35' E 010°18'0 0.0
2014-Apr-12 07:20N 43°35' E 010°18'0 0.0
2014-Apr-12 06:32N 43°35' E 010°18'0 0.0
2014-Apr-12 05:32N 43°35' E 010°18'0 0.0
2014-Apr-12 04:29N 43°35' E 010°18'0 0.0
2014-Apr-12 03:32N 43°35' E 010°18'0 0.0
2014-Apr-12 02:32N 43°35' E 010°18'0 0.0
2014-Apr-12 01:32N 43°35' E 010°18'0 0.0
2014-Apr-12 00:32N 43°35' E 010°18'0 0.0
2014-Apr-11 23:32N 43°35' E 010°18'0 0.0
2014-Apr-11 22:32N 43°35' E 010°18'0 0.0
2014-Apr-11 21:32N 43°35' E 010°18'0 0.0
2014-Apr-11 20:32N 43°35' E 010°18'0 0.0
2014-Apr-11 19:32N 43°35' E 010°18'0 0.0
2014-Apr-11 18:29N 43°35' E 010°18'0 0.0
2014-Apr-11 17:32N 43°35' E 010°18'0 0.0
2014-Apr-11 16:32N 43°35' E 010°18'0 0.0
2014-Apr-11 15:32N 43°35' E 010°18'0 0.0
2014-Apr-11 14:32N 43°35' E 010°18'0 0.0
2014-Apr-11 13:32N 43°35' E 010°18'0 0.0
2014-Apr-11 12:32N 43°35' E 010°18'0 0.0
2014-Apr-11 11:32N 43°35' E 010°18'0 0.0
2014-Apr-11 10:26N 43°35' E 010°18'0 0.0
2014-Apr-11 09:29N 43°35' E 010°18'0 0.0
2014-Apr-11 08:32N 43°35' E 010°18'0 0.0
2014-Apr-11 07:32N 43°35' E 010°18'0 0.0
2014-Apr-11 06:32N 43°35' E 010°18'0 0.0
2014-Apr-11 05:29N 43°35' E 010°18'0 0.0
2014-Apr-11 04:32N 43°35' E 010°18'0 0.0
2014-Apr-11 03:32N 43°35' E 010°18'0 0.0
2014-Apr-11 02:32N 43°35' E 010°18'0 0.0
2014-Apr-11 01:32N 43°35' E 010°18'0 0.0
2014-Apr-11 00:29N 43°35' E 010°18'0 0.0
2014-Apr-10 23:32N 43°35' E 010°18'0 0.0
2014-Apr-10 22:32N 43°35' E 010°18'0 0.0
2014-Apr-10 21:32N 43°35' E 010°18'0 0.0
2014-Apr-10 20:34N 43°35' E 010°18'8 8.1
2014-Apr-10 19:33N 43°30' E 010°09'1919.0
2014-Apr-10 18:33N 43°28' E 009°43'2019.6
2014-Apr-10 17:33N 43°22' E 009°18'1919.3
2014-Apr-10 16:33N 43°14' E 008°53'1919.4
2014-Apr-10 15:33N 43°07' E 008°28'2019.5
2014-Apr-10 14:33N 42°60' E 008°03'2119.5
2014-Apr-10 13:29N 42°53' E 007°37'1819.3
2014-Apr-10 12:32N 42°45' E 007°14'4019.6
2014-Apr-10 10:29N 42°32' E 006°23'1919.7
2014-Apr-10 09:31N 42°25' E 005°58'3719.1
2014-Apr-10 07:33N 42°10' E 005°12'2119.5
2014-Apr-10 06:29N 42°03' E 004°46'1818.8
2014-Apr-10 05:32N 41°56' E 004°23'1818.2
2014-Apr-10 04:33N 41°49' E 004°01'2818.9
2014-Apr-10 03:04N 41°39' E 003°26'1018.7
2014-Apr-10 02:33N 41°36' E 003°14'2019.8
2014-Apr-10 01:33N 41°28' E 002°50'1919.0
2014-Apr-10 00:33N 41°21' E 002°26'1212.0
2014-Apr-09 23:33N 41°21' E 002°10'1 1.2
2014-Apr-09 22:30N 41°22' E 002°11'0 0.0
2014-Apr-09 21:33N 41°22' E 002°11'0 0.0
2014-Apr-09 20:33N 41°22' E 002°11'0 0.0
2014-Apr-09 19:33N 41°22' E 002°11'0 0.0
2014-Apr-09 18:30N 41°22' E 002°11'1010.3
2014-Apr-09 17:33N 41°12' E 002°08'2121.3
2014-Apr-09 16:34N 40°53' E 001°55'2120.7
2014-Apr-09 15:33N 40°35' E 001°43'2121.2
2014-Apr-09 14:33N 40°16' E 001°30'2121.0
2014-Apr-09 13:33N 39°57' E 001°17'4521.8
2014-Apr-09 11:30N 39°18' E 000°51'8321.0
2014-Apr-09 07:33N 38°06' W 000°02'  

Dump ship's entire track history

sailing weather and tide predictions

Ikarus — SWEW — position and weather